メインページ
METAR-TAF:

METAR-TAF

空港 :

Lutselk'e, ノースウェスト準州, カナダ

緯度: 62-25N, 経度: 110-40W, 海抜: 179m

現時点の気象観測

当レポートは2時間49分前の01:00(UTC)に作成
南/南西の風 4kt
気温 -32°C
湿度 67%
気圧 1024 hPa
視程: 40.2km
晴天

METAR: CYLK 130100Z 21004KT 25SM SKC M32/M36 A3025 RMK 0/43 SNW CVR/MEDIUM PACK LAST STFD OBS/NEXT 131500 UTC SLP276

時間: 20:49 (03:49 UTC)

予報

当レポートは9時間11分前の18:38(UTC)に作成
予報は12日の 19時(UTC)から 13日の 01時(UTC)まで有効
変向風 3kt
視程: 10km
晴天

TAF: CYLK 121838Z 1219/1301 VRB03KT P6SM SKC RMK NXT FCST WILL BE ISSUED AT 131645Z

4,000以上の空港の気象観測と天気予報(METAR報とTAF報)

利用可能な観測所は地図上に黄色い丸と赤い丸で示す。

丸の上にカーソルを重ねると観測所名を参照できる。

次にクリックすると気象観測と天気予報を参照できる。

マップの切り替え:黒色「×」印の緑ボタンをクリックして拡大、「-」印の緑ボタンをクリックして縮小、緑色の三角印をクリックして隣りの地図に切り替え


METAR-TAF: